Terminal Aerodrome Forecast
Issued by NWS North Platte, NE

Home | Current Version | Previous Version | Graphics & Text | Print | Product List | Glossary On
Versions: 1 2 3 4 5 6 7 8 9 10 11 12 13 14 15 16 17 18 19
000
FTUS43 KLBF 262300
TAFVTN
TAF
KVTN 262320Z 2700/2724 VRB04KT P6SM BKN120
     FM270300 11006KT P6SM SCT015 BKN030
     FM270900 14008KT P6SM OVC010
     FM271900 18012KT P6SM SCT015 BKN250=

USA.gov is the U.S. government's official web portal to all federal, state and local government web resources and services.